Airfield :
LOGIN :

Register | Disclaimer

   EN    FR    IT 

 










Legend :    VFR   Marginal VFR   IFR   Intensive IFR   Very Intensive IFR
Visi :
Ceiling :
>= 8 km
>= 3000ft
5 to 8 km
1000 to 3000 ft
1500m to 5 km
500 to 1000 ft
800 to 1500m
200 to 500 ft
< 800m
< 200 ft
Symbols :   Thunderstorms  Fog  Heavy snow  Heavy precipitations  Wind > 20 kt
SIGMETs :     Misc.  Thunderstorms  Icing  Turbulence  Mountain Waves  Volcanic Ashes






- Airport Elevation : 1375 ft
- IATA code : SCV


LRSV - Suceava Stefan cel Mare

CURRENT METAR :
  • 291430Z 33012KT 9999 -SHRA SCT035CB 13/10 Q1013 R16/29//95

EXPIRED METARs :
  • 291400Z 33011KT 9999 FEW031 13/09 Q1013 R16/29//95
  • 291330Z 33014KT 9999 -SHRA FEW018 SCT045CB 12/09 Q1013 R16/29//95
  • 291300Z 34017KT 9999 -SHRA FEW018 SCT035CB 14/10 Q1013 R16/29//95
  • 291230Z 32017KT 9999 FEW020 FEW045CB 13/09 Q1013 R16/29//95
  • 291200Z 33018KT 9999 FEW045CB 13/10 Q1013 R16/29//95

TAF TAF LRSV
Valid from the 29 at 15:00 until the 30 at 00:00 UTC


291400Z 2915/3000 31015KT 9999 SCT035
PROB30
TEMPO 2915/2917 5000 TSRA BKN015 SCT030CB



MET'MAP, your aeronautical weather chart ! - Copyright ORBIFLY December 2007 - Disclaimer

ORBIFLY MET'MAP TEAM :

Programming & Development : Alexandra Zaïnal
Concept & original design : Baudouin d'Aumeries
Assistance for programming : Marc-Olivier Méhu
Technical & hardware support : Manuel Goepfert

Contact : metmap@orbifly.com




SOURCES & CREDITS :

   NOAA